Amarant — CQSF — position and weather

sailwx.info

Track history (hours):
 
Tides and Currents Weather Stations Pressure Air Temp Water Temp Dewpoint Dewpoint Depression Visibility Wind Speed Wind Dir Waves Ship Positions

Amarant

Last reported at 2017-Mar-30 19:33 UTC. Time now 2017-Mar-30 22:39 UTC.
Position N 53°09' E 001°28'.

Length 119 m; draft 6.4 m.

Type: Tanker. MMSI: 255623000.

Date/timePositionNaut miles runAvg speedWind from/ knotsBaromVisibWave heightAir tempDewpointWater temp
2017-Mar-30 19:33N 53°09' E 001°28'1211.4
2017-Mar-30 18:33N 53°02' E 001°42'1111.6
2017-Mar-30 17:33N 52°56' E 001°59'1313.0
2017-Mar-30 16:33N 52°46' E 002°12'6813.4
2017-Mar-30 11:26N 51°46' E 003°05'1112.1
2017-Mar-30 10:33N 51°40' E 003°19'1212.0
2017-Mar-30 09:33N 51°30' E 003°29'1110.4
2017-Mar-30 08:33N 51°24' E 003°43'1212.1
2017-Mar-30 07:33N 51°25' E 004°02'1111.4
2017-Mar-30 06:33N 51°19' E 004°16'3 3.0
2017-Mar-30 05:31N 51°17' E 004°20'2 1.9
2017-Mar-30 04:33N 51°15' E 004°22'0 0.2
2017-Mar-30 03:31N 51°15' E 004°22'0 0.0
2017-Mar-30 02:31N 51°15' E 004°22'0 0.0
2017-Mar-30 01:31N 51°15' E 004°22'0 0.0
2017-Mar-30 00:31N 51°15' E 004°22'0 0.0
2017-Mar-29 23:31N 51°15' E 004°22'0 0.0
2017-Mar-29 22:31N 51°15' E 004°22'0 0.0
2017-Mar-29 21:31N 51°15' E 004°22'0 0.0
2017-Mar-29 20:31N 51°15' E 004°22'0 0.0
2017-Mar-29 19:31N 51°15' E 004°22'0 0.0
2017-Mar-29 18:31N 51°15' E 004°22'0 0.0
2017-Mar-29 17:31N 51°15' E 004°22'0 0.0
2017-Mar-29 16:31N 51°15' E 004°22'0 0.0
2017-Mar-29 15:31N 51°15' E 004°22'0 0.0
2017-Mar-29 14:31N 51°15' E 004°22'0 0.0
2017-Mar-29 13:31N 51°15' E 004°22'0 0.0
2017-Mar-29 12:31N 51°15' E 004°22'0 0.0
2017-Mar-29 11:31N 51°15' E 004°22'0 0.0
2017-Mar-29 10:31N 51°15' E 004°22'0 0.0
2017-Mar-29 09:31N 51°15' E 004°22'0 0.0
2017-Mar-29 08:33N 51°15' E 004°22'0 0.0
2017-Mar-29 07:33N 51°15' E 004°22'0 0.0
2017-Mar-29 06:33N 51°15' E 004°22'0 0.0
2017-Mar-29 05:33N 51°15' E 004°22'0 0.0
2017-Mar-29 04:33N 51°15' E 004°22'0 0.0
2017-Mar-29 03:33N 51°15' E 004°22'0 0.0
2017-Mar-29 02:33N 51°15' E 004°22'0 0.0
2017-Mar-29 01:33N 51°15' E 004°22'0 0.0
2017-Mar-29 00:33N 51°15' E 004°22'0 0.0
2017-Mar-28 23:33N 51°15' E 004°22'0 0.0
2017-Mar-28 22:33N 51°15' E 004°22'0 0.0
2017-Mar-28 21:33N 51°15' E 004°22'0 0.0
2017-Mar-28 20:33N 51°15' E 004°22'0 0.0
2017-Mar-28 19:33N 51°15' E 004°22'0 0.0
2017-Mar-28 18:33N 51°15' E 004°22'0 0.0
2017-Mar-28 17:33N 51°15' E 004°22'0 0.0
2017-Mar-28 16:33N 51°15' E 004°22'0 0.0
2017-Mar-28 15:33N 51°15' E 004°22'0 0.0
2017-Mar-28 14:33N 51°15' E 004°22'0 0.0
2017-Mar-28 13:33N 51°15' E 004°22'0 0.0
2017-Mar-28 12:33N 51°15' E 004°22'0 0.0
2017-Mar-28 11:33N 51°15' E 004°22'0 0.0
2017-Mar-28 10:33N 51°15' E 004°22'0 0.0
2017-Mar-28 09:33N 51°15' E 004°22'0 0.0
2017-Mar-28 08:33N 51°15' E 004°22'0 0.0
2017-Mar-28 07:33N 51°15' E 004°22'0 0.0
2017-Mar-28 06:33N 51°15' E 004°22'0 0.0
2017-Mar-28 05:33N 51°15' E 004°22'0 0.0
2017-Mar-28 04:33N 51°15' E 004°22'0 0.0
2017-Mar-28 03:33N 51°15' E 004°22'0 0.0
2017-Mar-28 02:33N 51°15' E 004°22'0 0.0
2017-Mar-28 01:33N 51°15' E 004°22'0 0.0
2017-Mar-28 00:33N 51°15' E 004°22'6 6.0
2017-Mar-27 23:33N 51°21' E 004°18'1 1.1
2017-Mar-27 22:33N 51°21' E 004°16'7 7.2
2017-Mar-27 21:33N 51°22' E 004°05'9 8.7
2017-Mar-27 20:33N 51°21' E 003°51'1111.0
2017-Mar-27 19:34N 51°26' E 003°36'1110.9
2017-Mar-27 18:34N 51°34' E 003°24'29 9.6
2017-Mar-27 15:33N 52°03' E 003°21'1111.2
2017-Mar-27 14:33N 52°14' E 003°24'1211.9
2017-Mar-27 13:34N 52°26' E 003°27'1612.2
2017-Mar-27 12:16N 52°41' E 003°35'1013.8
2017-Mar-27 11:33N 52°48' E 003°45'1514.5
2017-Mar-27 10:33N 52°59' E 004°02'1614.3
2017-Mar-27 09:25N 53°09' E 004°23'1313.9
2017-Mar-27 08:29N 53°21' E 004°31'1212.2
2017-Mar-27 07:32N 53°30' E 004°44'1612.3
2017-Mar-27 06:13N 53°35' E 005°09'912.6
2017-Mar-27 05:32N 53°38' E 005°23'1913.3
2017-Mar-27 04:04N 53°45' E 005°54'5414.9
2017-Mar-27 00:26N 53°59' E 007°22'1614.0
2017-Mar-26 23:17N 54°02' E 007°50'1113.7
2017-Mar-26 22:28N 54°00' E 008°08'1111.9
2017-Mar-26 21:31N 53°59' E 008°27'9 9.8
2017-Mar-26 20:33N 53°54' E 008°42'1110.9
2017-Mar-26 19:34N 53°51' E 008°59'6 6.3
2017-Mar-26 18:34N 53°54' E 009°09'6 5.9
2017-Mar-26 17:33N 53°58' E 009°15'8 7.6
2017-Mar-26 16:33N 54°05' E 009°19'40 6.4
2017-Mar-26 10:20N 54°28' E 010°15'911.3
2017-Mar-26 09:33N 54°33' E 010°28'1313.3
2017-Mar-26 08:33N 54°35' E 010°51'1413.6
2017-Mar-26 07:34N 54°35' E 011°14'1414.1
2017-Mar-26 06:34N 54°29' E 011°36'1413.9
2017-Mar-26 05:33N 54°27' E 011°60'1211.5
2017-Mar-26 04:33N 54°35' E 012°13'1713.4
2017-Mar-26 03:17N 54°46' E 012°36'2513.5
2017-Mar-26 01:26N 54°55' E 013°17'2613.5
2017-Mar-25 23:30N 55°03' E 013°60'1313.2
2017-Mar-25 22:29N 55°13' E 014°16'1313.7
2017-Mar-25 21:33N 55°23' E 014°30'1313.1
2017-Mar-25 20:33N 55°31' E 014°48'1313.1
2017-Mar-25 19:32N 55°38' E 015°08'1313.5
2017-Mar-25 18:33N 55°45' E 015°29'1413.6
2017-Mar-25 17:33N 55°51' E 015°50'1413.6
2017-Mar-25 16:33N 55°58' E 016°10'1413.5
2017-Mar-25 15:33N 56°05' E 016°31'1312.8
2017-Mar-25 14:33N 56°15' E 016°46'1413.6
2017-Mar-25 13:33N 56°28' E 016°53'  
2017-Mar-21 21:33N 56°03' E 016°44'1414.3
2017-Mar-21 20:33N 55°56' E 016°21'1414.2
2017-Mar-21 19:33N 55°49' E 015°59'1414.1
2017-Mar-21 18:33N 55°42' E 015°37'1514.6
2017-Mar-21 17:33N 55°35' E 015°15'1514.7
2017-Mar-21 16:33N 55°28' E 014°52'1414.2
2017-Mar-21 15:33N 55°19' E 014°32'1414.2
2017-Mar-21 14:33N 55°08' E 014°17'1413.5
2017-Mar-21 13:32N 54°59' E 013°58'1414.1
2017-Mar-21 12:34N 54°55' E 013°35'1414.1
2017-Mar-21 11:33N 54°51' E 013°12'1414.0
2017-Mar-21 10:34N 54°46' E 012°49'1614.8
2017-Mar-21 09:30N 54°38' E 012°26'1313.7
2017-Mar-21 08:33N 54°27' E 012°14'2913.4
2017-Mar-21 06:23N 54°31' E 011°24'1113.8
2017-Mar-21 05:33N 54°35' E 011°06'1414.4
2017-Mar-21 04:33N 54°34' E 010°41'56 7.0
2017-Mar-20 20:31N 54°04' E 009°19'8 8.2
2017-Mar-20 19:33N 53°57' E 009°14'  
Track history (hours):
 
Tides and Currents Weather Stations Pressure Air Temp Water Temp Dewpoint Dewpoint Depression Visibility Wind Speed Wind Dir Waves Ship Positions

Amarant

Last reported at 2017-Mar-30 19:33 UTC. Time now 2017-Mar-30 22:39 UTC.
Position N 53°09' E 001°28'.

Length 119 m; draft 6.4 m.

Type: Tanker. MMSI: 255623000.

Date/timePositionNaut miles runAvg speedWind from/ knotsBaromVisibWave heightAir tempDewpointWater temp
2017-Mar-30 19:33N 53°09' E 001°28'1211.4
2017-Mar-30 18:33N 53°02' E 001°42'1111.6
2017-Mar-30 17:33N 52°56' E 001°59'1313.0
2017-Mar-30 16:33N 52°46' E 002°12'6813.4
2017-Mar-30 11:26N 51°46' E 003°05'1112.1
2017-Mar-30 10:33N 51°40' E 003°19'1212.0
2017-Mar-30 09:33N 51°30' E 003°29'1110.4
2017-Mar-30 08:33N 51°24' E 003°43'1212.1
2017-Mar-30 07:33N 51°25' E 004°02'1111.4
2017-Mar-30 06:33N 51°19' E 004°16'3 3.0
2017-Mar-30 05:31N 51°17' E 004°20'2 1.9
2017-Mar-30 04:33N 51°15' E 004°22'0 0.2
2017-Mar-30 03:31N 51°15' E 004°22'0 0.0
2017-Mar-30 02:31N 51°15' E 004°22'0 0.0
2017-Mar-30 01:31N 51°15' E 004°22'0 0.0
2017-Mar-30 00:31N 51°15' E 004°22'0 0.0
2017-Mar-29 23:31N 51°15' E 004°22'0 0.0
2017-Mar-29 22:31N 51°15' E 004°22'0 0.0
2017-Mar-29 21:31N 51°15' E 004°22'0 0.0
2017-Mar-29 20:31N 51°15' E 004°22'0 0.0
2017-Mar-29 19:31N 51°15' E 004°22'0 0.0
2017-Mar-29 18:31N 51°15' E 004°22'0 0.0
2017-Mar-29 17:31N 51°15' E 004°22'0 0.0
2017-Mar-29 16:31N 51°15' E 004°22'0 0.0
2017-Mar-29 15:31N 51°15' E 004°22'0 0.0
2017-Mar-29 14:31N 51°15' E 004°22'0 0.0
2017-Mar-29 13:31N 51°15' E 004°22'0 0.0
2017-Mar-29 12:31N 51°15' E 004°22'0 0.0
2017-Mar-29 11:31N 51°15' E 004°22'0 0.0
2017-Mar-29 10:31N 51°15' E 004°22'0 0.0
2017-Mar-29 09:31N 51°15' E 004°22'0 0.0
2017-Mar-29 08:33N 51°15' E 004°22'0 0.0
2017-Mar-29 07:33N 51°15' E 004°22'0 0.0
2017-Mar-29 06:33N 51°15' E 004°22'0 0.0
2017-Mar-29 05:33N 51°15' E 004°22'0 0.0
2017-Mar-29 04:33N 51°15' E 004°22'0 0.0
2017-Mar-29 03:33N 51°15' E 004°22'0 0.0
2017-Mar-29 02:33N 51°15' E 004°22'0 0.0
2017-Mar-29 01:33N 51°15' E 004°22'0 0.0
2017-Mar-29 00:33N 51°15' E 004°22'0 0.0
2017-Mar-28 23:33N 51°15' E 004°22'0 0.0
2017-Mar-28 22:33N 51°15' E 004°22'0 0.0
2017-Mar-28 21:33N 51°15' E 004°22'0 0.0
2017-Mar-28 20:33N 51°15' E 004°22'0 0.0
2017-Mar-28 19:33N 51°15' E 004°22'0 0.0
2017-Mar-28 18:33N 51°15' E 004°22'0 0.0
2017-Mar-28 17:33N 51°15' E 004°22'0 0.0
2017-Mar-28 16:33N 51°15' E 004°22'0 0.0
2017-Mar-28 15:33N 51°15' E 004°22'0 0.0
2017-Mar-28 14:33N 51°15' E 004°22'0 0.0
2017-Mar-28 13:33N 51°15' E 004°22'0 0.0
2017-Mar-28 12:33N 51°15' E 004°22'0 0.0
2017-Mar-28 11:33N 51°15' E 004°22'0 0.0
2017-Mar-28 10:33N 51°15' E 004°22'0 0.0
2017-Mar-28 09:33N 51°15' E 004°22'0 0.0
2017-Mar-28 08:33N 51°15' E 004°22'0 0.0
2017-Mar-28 07:33N 51°15' E 004°22'0 0.0
2017-Mar-28 06:33N 51°15' E 004°22'0 0.0
2017-Mar-28 05:33N 51°15' E 004°22'0 0.0
2017-Mar-28 04:33N 51°15' E 004°22'0 0.0
2017-Mar-28 03:33N 51°15' E 004°22'0 0.0
2017-Mar-28 02:33N 51°15' E 004°22'0 0.0
2017-Mar-28 01:33N 51°15' E 004°22'0 0.0
2017-Mar-28 00:33N 51°15' E 004°22'6 6.0
2017-Mar-27 23:33N 51°21' E 004°18'1 1.1
2017-Mar-27 22:33N 51°21' E 004°16'7 7.2
2017-Mar-27 21:33N 51°22' E 004°05'9 8.7
2017-Mar-27 20:33N 51°21' E 003°51'1111.0
2017-Mar-27 19:34N 51°26' E 003°36'1110.9
2017-Mar-27 18:34N 51°34' E 003°24'29 9.6
2017-Mar-27 15:33N 52°03' E 003°21'1111.2
2017-Mar-27 14:33N 52°14' E 003°24'1211.9
2017-Mar-27 13:34N 52°26' E 003°27'1612.2
2017-Mar-27 12:16N 52°41' E 003°35'1013.8
2017-Mar-27 11:33N 52°48' E 003°45'1514.5
2017-Mar-27 10:33N 52°59' E 004°02'1614.3
2017-Mar-27 09:25N 53°09' E 004°23'1313.9
2017-Mar-27 08:29N 53°21' E 004°31'1212.2
2017-Mar-27 07:32N 53°30' E 004°44'1612.3
2017-Mar-27 06:13N 53°35' E 005°09'912.6
2017-Mar-27 05:32N 53°38' E 005°23'1913.3
2017-Mar-27 04:04N 53°45' E 005°54'5414.9
2017-Mar-27 00:26N 53°59' E 007°22'1614.0
2017-Mar-26 23:17N 54°02' E 007°50'1113.7
2017-Mar-26 22:28N 54°00' E 008°08'1111.9
2017-Mar-26 21:31N 53°59' E 008°27'9 9.8
2017-Mar-26 20:33N 53°54' E 008°42'1110.9
2017-Mar-26 19:34N 53°51' E 008°59'6 6.3
2017-Mar-26 18:34N 53°54' E 009°09'6 5.9
2017-Mar-26 17:33N 53°58' E 009°15'8 7.6
2017-Mar-26 16:33N 54°05' E 009°19'40 6.4
2017-Mar-26 10:20N 54°28' E 010°15'911.3
2017-Mar-26 09:33N 54°33' E 010°28'1313.3
2017-Mar-26 08:33N 54°35' E 010°51'1413.6
2017-Mar-26 07:34N 54°35' E 011°14'1414.1
2017-Mar-26 06:34N 54°29' E 011°36'1413.9
2017-Mar-26 05:33N 54°27' E 011°60'1211.5
2017-Mar-26 04:33N 54°35' E 012°13'1713.4
2017-Mar-26 03:17N 54°46' E 012°36'2513.5
2017-Mar-26 01:26N 54°55' E 013°17'2613.5
2017-Mar-25 23:30N 55°03' E 013°60'1313.2
2017-Mar-25 22:29N 55°13' E 014°16'1313.7
2017-Mar-25 21:33N 55°23' E 014°30'1313.1
2017-Mar-25 20:33N 55°31' E 014°48'1313.1
2017-Mar-25 19:32N 55°38' E 015°08'1313.5
2017-Mar-25 18:33N 55°45' E 015°29'1413.6
2017-Mar-25 17:33N 55°51' E 015°50'1413.6
2017-Mar-25 16:33N 55°58' E 016°10'1413.5
2017-Mar-25 15:33N 56°05' E 016°31'1312.8
2017-Mar-25 14:33N 56°15' E 016°46'1413.6
2017-Mar-25 13:33N 56°28' E 016°53'  
2017-Mar-21 21:33N 56°03' E 016°44'1414.3
2017-Mar-21 20:33N 55°56' E 016°21'1414.2
2017-Mar-21 19:33N 55°49' E 015°59'1414.1
2017-Mar-21 18:33N 55°42' E 015°37'1514.6
2017-Mar-21 17:33N 55°35' E 015°15'1514.7
2017-Mar-21 16:33N 55°28' E 014°52'1414.2
2017-Mar-21 15:33N 55°19' E 014°32'1414.2
2017-Mar-21 14:33N 55°08' E 014°17'1413.5
2017-Mar-21 13:32N 54°59' E 013°58'1414.1
2017-Mar-21 12:34N 54°55' E 013°35'1414.1
2017-Mar-21 11:33N 54°51' E 013°12'1414.0
2017-Mar-21 10:34N 54°46' E 012°49'1614.8
2017-Mar-21 09:30N 54°38' E 012°26'1313.7
2017-Mar-21 08:33N 54°27' E 012°14'2913.4
2017-Mar-21 06:23N 54°31' E 011°24'1113.8
2017-Mar-21 05:33N 54°35' E 011°06'1414.4
2017-Mar-21 04:33N 54°34' E 010°41'56 7.0
2017-Mar-20 20:31N 54°04' E 009°19'8 8.2
2017-Mar-20 19:33N 53°57' E 009°14'  

Dump ship's entire track history